Time;durP1;ratioP1;P1;durP2;ratioP2;P2;SDS_P1;SDS_P2;PMS_P1;PMS_P2;Temp;Humidity;BMP_temperature;BMP_pressure;BME280_temperature;BME280_humidity;BME280_pressure;Samples;Min_cycle;Max_cycle;Signal;HPM_P1;HPM_P2
2022/12/06 00:00:39;;;;;;;9.82;3.97;;;6.60;99.90;;;;;;5109728;28;20035;-88
2022/12/06 00:03:05;;;;;;;9.23;4.22;;;6.60;99.90;;;;;;5093483;28;20496;-87
2022/12/06 00:05:31;;;;;;;9.68;4.75;;;6.60;99.90;;;;;;5109033;28;20042;-88
2022/12/06 00:07:56;;;;;;;11.50;4.53;;;6.60;99.90;;;;;;5093691;28;20028;-88
2022/12/06 00:10:22;;;;;;;11.93;5.13;;;6.60;99.90;;;;;;5084225;28;20035;-88
2022/12/06 00:12:48;;;;;;;11.65;4.80;;;6.60;99.90;;;;;;5093425;28;20042;-87
2022/12/06 00:15:13;;;;;;;9.77;4.53;;;6.60;99.90;;;;;;5108800;28;20134;-87
2022/12/06 00:17:39;;;;;;;13.63;5.55;;;6.60;99.90;;;;;;5092327;28;20439;-87
2022/12/06 00:20:05;;;;;;;15.05;4.63;;;6.70;99.90;;;;;;5109452;28;20218;-86
2022/12/06 00:22:31;;;;;;;10.68;4.45;;;6.60;99.90;;;;;;5109139;28;20035;-88
2022/12/06 00:24:56;;;;;;;11.13;4.85;;;6.70;99.90;;;;;;5109958;28;20636;-88
2022/12/06 00:27:22;;;;;;;10.15;3.97;;;6.70;99.90;;;;;;5109454;28;20040;-88
2022/12/06 00:29:48;;;;;;;9.95;4.07;;;6.60;99.90;;;;;;5110514;28;20028;-88
2022/12/06 00:32:13;;;;;;;10.20;3.85;;;6.70;99.90;;;;;;5110205;28;20085;-88
2022/12/06 00:34:39;;;;;;;9.40;3.85;;;6.70;99.90;;;;;;5112266;28;20507;-87
2022/12/06 00:37:04;;;;;;;9.35;3.47;;;6.60;99.90;;;;;;5113495;28;20167;-88
2022/12/06 00:39:30;;;;;;;10.57;3.70;;;6.60;99.90;;;;;;5095401;28;20575;-87
2022/12/06 00:41:56;;;;;;;8.63;3.40;;;6.70;99.90;;;;;;5113358;28;20044;-88
2022/12/06 00:44:21;;;;;;;10.23;4.03;;;6.70;99.90;;;;;;5113748;28;20524;-88
2022/12/06 00:46:47;;;;;;;9.65;4.07;;;6.60;99.90;;;;;;5095385;28;20540;-88
2022/12/06 00:49:13;;;;;;;8.32;3.42;;;6.60;99.90;;;;;;5113488;28;20422;-88
2022/12/06 00:51:39;;;;;;;9.18;3.70;;;6.60;99.90;;;;;;5112628;28;20660;-88
2022/12/06 00:54:05;;;;;;;12.02;4.70;;;6.60;99.90;;;;;;5095819;28;20416;-88
2022/12/06 00:56:33;;;;;;;12.45;4.28;;;6.70;99.90;;;;;;5095766;28;20035;-87
2022/12/06 00:58:59;;;;;;;13.43;3.25;;;6.60;99.90;;;;;;5095880;28;20118;-88
2022/12/06 01:01:27;;;;;;;9.55;3.90;;;6.60;99.90;;;;;;5113285;28;20173;-88
2022/12/06 01:03:56;;;;;;;11.77;4.25;;;6.60;99.90;;;;;;5095432;28;20038;-88
2022/12/06 01:06:26;;;;;;;9.75;3.33;;;6.60;99.90;;;;;;5113402;28;20054;-88
2022/12/06 01:08:56;;;;;;;11.93;4.30;;;6.60;99.90;;;;;;5113456;28;20036;-88
2022/12/06 01:11:23;;;;;;;9.38;3.65;;;6.60;99.90;;;;;;5103838;28;20386;-88
2022/12/06 01:13:49;;;;;;;9.95;3.42;;;6.60;99.90;;;;;;5095833;28;20676;-87
2022/12/06 01:16:18;;;;;;;10.30;3.65;;;6.60;99.90;;;;;;5105880;28;20727;-88
2022/12/06 01:18:45;;;;;;;9.68;4.63;;;6.60;99.90;;;;;;5092398;28;20044;-88
2022/12/06 01:21:13;;;;;;;9.10;3.35;;;6.60;99.90;;;;;;5100201;28;20035;-88
2022/12/06 01:23:39;;;;;;;9.77;3.75;;;6.60;99.90;;;;;;5095497;28;20042;-88
2022/12/06 01:26:06;;;;;;;11.50;3.60;;;6.60;99.90;;;;;;5096510;28;20043;-88
2022/12/06 01:28:32;;;;;;;9.25;4.32;;;6.60;99.90;;;;;;5113236;28;20543;-87
2022/12/06 01:30:58;;;;;;;10.77;4.13;;;6.60;99.90;;;;;;5113330;28;20470;-88
2022/12/06 01:33:24;;;;;;;13.25;3.53;;;6.60;99.90;;;;;;5111922;28;20248;-87
2022/12/06 01:35:49;;;;;;;10.73;3.80;;;6.60;99.90;;;;;;5094845;28;20058;-88
2022/12/06 01:38:15;;;;;;;13.10;3.67;;;6.60;99.90;;;;;;5112379;28;20039;-88
2022/12/06 01:40:46;;;;;;;9.48;3.35;;;6.50;99.90;;;;;;5112016;28;20081;-88
2022/12/06 01:43:36;;;;;;;9.70;3.58;;;6.50;99.90;;;;;;5112480;28;20126;-88
2022/12/06 01:46:09;;;;;;;9.18;3.60;;;6.50;99.90;;;;;;5082691;28;20093;-88
2022/12/06 01:48:36;;;;;;;12.80;3.83;;;6.50;99.90;;;;;;5112230;28;20121;-88
2022/12/06 01:51:05;;;;;;;7.95;3.03;;;6.50;99.90;;;;;;5131178;28;20051;-87
2022/12/06 01:53:31;;;;;;;10.90;3.63;;;6.50;99.90;;;;;;5129372;28;20035;-88
2022/12/06 01:55:57;;;;;;;8.90;3.17;;;6.50;99.90;;;;;;5102753;28;20034;-88
2022/12/06 01:58:30;;;;;;;10.63;3.55;;;6.50;99.90;;;;;;5113468;28;20043;-88
2022/12/06 02:00:56;;;;;;;7.82;2.92;;;6.50;99.90;;;;;;5093456;28;20047;-88
2022/12/06 02:03:26;;;;;;;8.80;2.90;;;6.50;99.90;;;;;;5104672;28;20040;-87
2022/12/06 02:05:54;;;;;;;10.48;3.17;;;6.50;99.90;;;;;;5112703;28;20035;-87
2022/12/06 02:08:20;;;;;;;10.88;3.13;;;6.50;99.90;;;;;;5112484;28;20523;-88
2022/12/06 02:10:46;;;;;;;9.77;3.22;;;6.50;99.90;;;;;;5095181;28;20035;-88
2022/12/06 02:13:12;;;;;;;15.52;3.45;;;6.50;99.90;;;;;;5111989;28;20122;-87
2022/12/06 02:16:00;;;;;;;8.20;2.70;;;6.50;99.90;;;;;;5111153;28;20039;-88
2022/12/06 02:18:36;;;;;;;8.45;2.63;;;6.50;99.90;;;;;;5070326;28;20667;-87
2022/12/06 02:21:26;;;;;;;10.45;3.03;;;6.50;99.90;;;;;;5078584;28;20043;-87
2022/12/06 02:24:03;;;;;;;10.75;2.38;;;6.50;99.90;;;;;;5094003;28;20050;-87
2022/12/06 02:26:42;;;;;;;9.48;2.70;;;6.50;99.90;;;;;;5093446;28;20035;-87
2022/12/06 02:29:46;;;;;;;11.55;2.80;;;6.50;99.90;;;;;;5106340;28;20097;-88
2022/12/06 02:32:34;;;;;;;7.95;2.83;;;6.50;99.90;;;;;;5106705;28;20043;-88
2022/12/06 02:35:23;;;;;;;6.30;2.25;;;6.50;99.90;;;;;;5093738;28;20043;-88
2022/12/06 02:37:57;;;;;;;8.73;3.25;;;6.50;99.90;;;;;;5089894;28;20047;-88
2022/12/06 02:40:31;;;;;;;10.35;2.70;;;6.50;99.90;;;;;;5086115;28;20089;-87
2022/12/06 02:43:18;;;;;;;9.38;2.60;;;6.50;99.90;;;;;;5094749;28;20039;-87
2022/12/06 02:45:50;;;;;;;9.75;3.47;;;6.50;99.90;;;;;;5094527;28;20039;-88
2022/12/06 02:48:18;;;;;;;11.57;2.75;;;6.50;99.90;;;;;;5112108;28;20039;-87
2022/12/06 02:50:49;;;;;;;9.90;2.88;;;6.50;99.90;;;;;;5095205;28;20059;-87
2022/12/06 02:53:19;;;;;;;11.00;3.35;;;6.50;99.90;;;;;;5093084;28;20553;-87
2022/12/06 02:55:45;;;;;;;10.05;3.20;;;6.50;99.90;;;;;;5093380;28;20036;-87
2022/12/06 02:58:10;;;;;;;9.57;2.70;;;6.50;99.90;;;;;;5110947;28;20043;-87
2022/12/06 03:00:42;;;;;;;8.05;2.42;;;6.50;99.90;;;;;;5092650;28;20409;-87
2022/12/06 03:03:42;;;;;;;8.17;2.43;;;6.50;99.90;;;;;;5111137;28;20042;-87
2022/12/06 03:06:32;;;;;;;8.07;2.50;;;6.50;99.90;;;;;;5066660;28;20043;-87
2022/12/06 03:09:18;;;;;;;6.80;2.30;;;6.50;99.90;;;;;;5074083;28;20036;-87
2022/12/06 03:11:49;;;;;;;6.90;2.15;;;6.50;99.90;;;;;;5108630;28;20640;-87
2022/12/06 03:14:22;;;;;;;7.38;2.22;;;6.50;99.90;;;;;;5110386;28;20046;-88
2022/12/06 03:17:07;;;;;;;;;;;6.50;99.90;;;;;;5093780;28;20406;-87
2022/12/06 03:19:35;;;;;;;7.10;2.25;;;6.40;99.90;;;;;;5093241;28;19920;-88
2022/12/06 03:22:10;;;;;;;7.15;1.83;;;6.40;99.90;;;;;;5110678;28;20071;-88
2022/12/06 03:24:38;;;;;;;7.70;2.05;;;6.40;99.90;;;;;;5110454;28;20491;-88
2022/12/06 03:27:09;;;;;;;7.85;2.15;;;6.40;99.90;;;;;;5110804;28;20035;-88
2022/12/06 03:29:39;;;;;;;8.95;2.13;;;6.40;99.90;;;;;;5094200;28;20528;-87
2022/12/06 03:32:06;;;;;;;12.27;2.20;;;6.40;99.90;;;;;;5084607;28;20039;-88
2022/12/06 03:34:37;;;;;;;6.50;1.92;;;6.40;99.90;;;;;;5110648;28;20051;-88
2022/12/06 03:37:06;;;;;;;6.72;2.33;;;6.40;99.90;;;;;;5092211;28;20515;-88
2022/12/06 03:39:43;;;;;;;6.72;1.70;;;6.40;99.90;;;;;;5109910;28;20078;-88
2022/12/06 03:42:10;;;;;;;5.95;1.90;;;6.40;99.90;;;;;;5109788;28;20485;-88
2022/12/06 03:44:36;;;;;;;7.00;2.15;;;6.40;99.90;;;;;;5093378;28;20094;-88
2022/12/06 03:47:11;;;;;;;9.02;3.95;;;6.40;99.90;;;;;;5094145;28;20524;-88
2022/12/06 03:49:44;;;;;;;6.28;1.90;;;6.30;99.90;;;;;;5092872;28;20059;-88
2022/12/06 03:52:09;;;;;;;6.35;1.77;;;6.30;99.90;;;;;;5093027;28;20040;-88
2022/12/06 03:54:38;;;;;;;5.38;1.75;;;6.30;99.90;;;;;;5092641;28;20130;-88
2022/12/06 03:57:04;;;;;;;6.50;2.05;;;6.30;99.90;;;;;;5091930;28;20035;-88
2022/12/06 03:59:30;;;;;;;4.07;1.40;;;6.30;99.90;;;;;;5109681;28;20405;-88
2022/12/06 04:01:55;;;;;;;5.65;1.75;;;6.30;99.90;;;;;;5109305;28;20059;-88
2022/12/06 04:04:21;;;;;;;9.52;2.15;;;6.30;99.90;;;;;;5109311;28;20067;-88
2022/12/06 04:06:47;;;;;;;4.57;1.75;;;6.30;99.90;;;;;;5092331;28;20032;-88
2022/12/06 04:14:58;;;;;;;5.50;1.63;;;6.20;99.90;;;;;;5103744;28;20039;-87
2022/12/06 04:20:07;;;;;;;6.55;1.60;;;6.20;99.90;;;;;;5108458;28;20646;-87
2022/12/06 04:25:17;;;;;;;5.95;1.40;;;6.20;99.90;;;;;;5109740;28;20047;-88
2022/12/06 04:38:43;;;;;;;6.10;1.40;;;6.20;99.90;;;;;;5109162;28;20051;-87
2022/12/06 04:41:10;;;;;;;5.07;1.63;;;6.20;99.90;;;;;;5092261;28;20031;-88
2022/12/06 04:43:41;;;;;;;4.18;1.27;;;6.20;99.90;;;;;;5092646;28;20455;-88
2022/12/06 04:46:10;;;;;;;4.45;1.10;;;6.20;99.90;;;;;;5092677;28;20031;-88
2022/12/06 04:48:36;;;;;;;3.45;1.08;;;6.20;99.90;;;;;;5109352;28;20028;-88
2022/12/06 04:51:02;;;;;;;4.85;1.35;;;6.20;99.90;;;;;;5110078;28;20036;-88
2022/12/06 04:53:28;;;;;;;3.47;1.25;;;6.20;99.90;;;;;;5091364;28;20116;-88
2022/12/06 04:55:53;;;;;;;6.72;1.25;;;6.20;99.90;;;;;;5109908;28;20172;-87
2022/12/06 04:58:19;;;;;;;4.10;1.27;;;6.20;99.90;;;;;;5091315;28;20462;-88
2022/12/06 05:00:45;;;;;;;2.88;1.10;;;6.20;99.90;;;;;;5091855;28;20078;-88
2022/12/06 05:03:11;;;;;;;3.47;1.23;;;6.20;99.90;;;;;;5092272;28;20035;-87
2022/12/06 05:05:39;;;;;;;3.25;1.23;;;6.20;99.90;;;;;;5108971;28;20420;-88
2022/12/06 05:08:05;;;;;;;4.20;1.23;;;6.20;99.90;;;;;;5110185;28;20127;-88
2022/12/06 05:10:31;;;;;;;3.95;1.10;;;6.20;99.90;;;;;;5092607;28;20039;-88
2022/12/06 05:12:58;;;;;;;4.13;1.23;;;6.10;99.90;;;;;;5108854;28;20039;-88
2022/12/06 05:15:24;;;;;;;6.97;1.27;;;6.10;99.90;;;;;;5092365;28;20039;-88
2022/12/06 05:17:50;;;;;;;3.10;1.20;;;6.10;99.90;;;;;;5107804;28;20044;-88
2022/12/06 05:20:15;;;;;;;4.13;1.20;;;6.10;99.90;;;;;;5095733;28;20126;-88
2022/12/06 05:22:41;;;;;;;5.35;1.08;;;6.10;99.90;;;;;;5112194;28;20454;-88
2022/12/06 05:25:07;;;;;;;3.50;1.40;;;6.10;99.90;;;;;;5096400;28;20024;-88
2022/12/06 05:27:33;;;;;;;4.05;1.15;;;6.10;99.90;;;;;;5096081;28;20076;-88
2022/12/06 05:29:58;;;;;;;4.78;1.17;;;6.10;99.90;;;;;;5113355;28;20035;-88
2022/12/06 05:32:24;;;;;;;4.00;1.20;;;6.10;99.90;;;;;;5095696;28;20158;-87
2022/12/06 05:34:50;;;;;;;2.90;1.02;;;6.00;99.90;;;;;;5112085;28;20070;-88
2022/12/06 05:37:16;;;;;;;3.60;1.02;;;6.00;99.90;;;;;;5112188;28;20044;-88
2022/12/06 05:39:41;;;;;;;3.65;1.20;;;6.10;99.90;;;;;;5111864;28;20036;-88
2022/12/06 05:42:07;;;;;;;3.38;1.20;;;6.00;99.90;;;;;;5095423;28;20032;-88
2022/12/06 05:44:33;;;;;;;4.28;2.05;;;6.00;99.90;;;;;;5095641;28;20040;-88
2022/12/06 05:46:58;;;;;;;4.97;1.70;;;6.00;99.90;;;;;;5112722;28;20050;-88
2022/12/06 05:49:24;;;;;;;8.80;2.10;;;6.00;99.90;;;;;;5113154;28;20048;-88
2022/12/06 05:51:49;;;;;;;5.18;1.67;;;6.00;99.90;;;;;;5112778;28;20143;-88
2022/12/06 05:54:15;;;;;;;7.65;2.15;;;5.90;99.90;;;;;;5110985;28;20039;-88
2022/12/06 05:56:40;;;;;;;5.15;1.85;;;5.90;99.90;;;;;;5112186;28;20036;-88
2022/12/06 05:59:06;;;;;;;5.38;1.95;;;5.90;99.90;;;;;;5093063;28;20585;-88
2022/12/06 06:01:32;;;;;;;5.55;1.63;;;5.90;99.90;;;;;;5093286;28;20034;-88
2022/12/06 06:03:57;;;;;;;6.85;1.95;;;5.90;99.90;;;;;;5092929;28;20487;-88
2022/12/06 06:06:23;;;;;;;7.18;2.35;;;5.90;99.90;;;;;;5102691;28;20051;-88
2022/12/06 06:08:48;;;;;;;5.28;2.17;;;5.90;99.90;;;;;;5095164;28;20061;-88
2022/12/06 06:11:14;;;;;;;7.63;2.15;;;5.90;99.90;;;;;;5095855;28;20180;-88
2022/12/06 06:13:40;;;;;;;6.25;2.13;;;5.90;99.90;;;;;;5111600;28;20039;-87
2022/12/06 06:16:06;;;;;;;6.35;2.00;;;5.90;99.90;;;;;;5111800;28;20058;-88
2022/12/06 06:18:31;;;;;;;6.07;1.90;;;5.80;99.90;;;;;;5111331;28;20043;-88
2022/12/06 06:20:58;;;;;;;5.70;1.90;;;5.80;99.90;;;;;;5094429;28;20047;-88
2022/12/06 06:23:25;;;;;;;7.57;2.17;;;5.80;99.90;;;;;;5094844;28;20392;-87
2022/12/06 06:25:51;;;;;;;5.40;1.73;;;5.80;99.90;;;;;;5094640;28;20119;-88
2022/12/06 06:28:17;;;;;;;5.25;1.75;;;5.80;99.90;;;;;;5078498;28;20130;-88
2022/12/06 06:30:43;;;;;;;6.57;1.88;;;5.80;99.90;;;;;;5074921;28;20040;-89
2022/12/06 06:33:09;;;;;;;6.15;2.00;;;5.80;99.90;;;;;;5093766;28;20137;-88
2022/12/06 06:35:35;;;;;;;7.13;3.10;;;5.80;99.90;;;;;;5095254;28;20563;-89
2022/12/06 06:38:01;;;;;;;7.78;1.90;;;5.70;99.90;;;;;;5093271;28;20039;-88
2022/12/06 06:40:27;;;;;;;7.50;2.10;;;5.70;99.90;;;;;;5093999;28;20043;-88
2022/12/06 06:42:53;;;;;;;5.45;1.95;;;5.70;99.90;;;;;;5094478;28;20606;-88
2022/12/06 06:45:19;;;;;;;7.05;1.83;;;5.70;99.90;;;;;;5110725;28;20119;-88
2022/12/06 06:47:45;;;;;;;5.32;1.88;;;5.70;99.90;;;;;;5094263;28;20122;-88
2022/12/06 06:50:10;;;;;;;7.43;2.58;;;5.70;99.90;;;;;;5094258;28;20035;-89
2022/12/06 06:52:36;;;;;;;5.95;1.83;;;5.70;99.90;;;;;;5094164;28;20465;-88
2022/12/06 06:55:02;;;;;;;5.47;1.75;;;5.70;99.90;;;;;;5094263;28;20071;-88
2022/12/06 06:57:27;;;;;;;6.82;1.63;;;5.70;99.90;;;;;;5076324;28;20035;-88
2022/12/06 06:59:55;;;;;;;8.88;2.45;;;5.70;99.90;;;;;;5093677;28;20031;-88
2022/12/06 07:02:21;;;;;;;7.30;2.38;;;5.70;99.90;;;;;;5092523;28;20035;-88
2022/12/06 07:04:46;;;;;;;7.20;2.42;;;5.70;99.90;;;;;;5110849;28;20039;-88
2022/12/06 07:07:12;;;;;;;5.20;1.58;;;5.70;99.90;;;;;;5110572;28;20032;-88
2022/12/06 07:09:38;;;;;;;6.82;2.10;;;5.60;99.90;;;;;;5112071;28;20400;-88
2022/12/06 07:12:04;;;;;;;4.95;1.70;;;5.60;99.90;;;;;;5093580;28;20116;-88
2022/12/06 07:14:30;;;;;;;5.93;2.10;;;5.60;99.90;;;;;;5110723;28;20040;-88
2022/12/06 07:16:55;;;;;;;7.35;2.00;;;5.60;99.90;;;;;;5092687;28;20035;-90
2022/12/06 07:19:21;;;;;;;7.72;2.15;;;5.60;99.90;;;;;;5110207;28;20092;-88
2022/12/06 07:21:47;;;;;;;5.18;1.80;;;5.60;99.90;;;;;;5093709;28;20108;-87
2022/12/06 07:24:13;;;;;;;6.43;1.98;;;5.60;99.90;;;;;;5092607;28;20035;-88
2022/12/06 07:26:39;;;;;;;6.30;1.98;;;5.50;99.90;;;;;;5093646;28;20126;-88
2022/12/06 07:29:04;;;;;;;8.52;2.17;;;5.50;99.90;;;;;;5109722;28;20031;-87
2022/12/06 07:31:30;;;;;;;6.18;2.40;;;5.50;99.90;;;;;;5077869;28;20070;-88
2022/12/06 07:33:58;;;;;;;7.40;2.13;;;5.50;99.90;;;;;;5107361;28;20085;-88
2022/12/06 07:36:26;;;;;;;6.13;2.55;;;5.50;99.90;;;;;;5123695;28;20016;-87
2022/12/06 07:38:54;;;;;;;10.02;2.15;;;5.50;99.90;;;;;;5095784;28;20039;-88
2022/12/06 07:46:54;;;;;;;4.38;1.65;;;5.40;99.90;;;;;;5116847;28;20032;-88
2022/12/06 07:49:19;;;;;;;5.78;1.80;;;5.30;99.90;;;;;;5091335;28;20032;-87
2022/12/06 07:51:46;;;;;;;6.55;2.38;;;5.30;99.90;;;;;;5110546;28;20141;-89
2022/12/06 07:54:12;;;;;;;5.93;1.73;;;5.20;99.90;;;;;;5092719;28;20032;-89
2022/12/06 07:56:38;;;;;;;6.45;2.30;;;5.20;99.90;;;;;;5089753;28;20075;-88
2022/12/06 07:59:04;;;;;;;6.25;2.13;;;5.10;99.90;;;;;;5076126;28;20039;-88
2022/12/06 08:01:30;;;;;;;5.70;1.95;;;5.10;99.90;;;;;;5090637;28;20040;-88
2022/12/06 08:04:02;;;;;;;6.07;2.00;;;5.00;99.90;;;;;;5091874;28;20080;-88
2022/12/06 08:06:30;;;;;;;6.70;2.10;;;5.00;99.90;;;;;;5108967;28;20042;-88
2022/12/06 08:08:55;;;;;;;5.47;1.75;;;5.00;99.90;;;;;;5109404;28;20418;-88
2022/12/06 08:11:21;;;;;;;6.45;1.75;;;4.90;99.90;;;;;;5092333;28;20036;-88
2022/12/06 08:13:47;;;;;;;7.53;1.98;;;4.90;99.90;;;;;;5092278;28;20126;-87
2022/12/06 08:16:13;;;;;;;6.95;1.77;;;4.80;99.90;;;;;;5110740;28;20067;-87
2022/12/06 08:18:40;;;;;;;5.25;1.95;;;4.80;99.90;;;;;;5109155;28;20566;-88
2022/12/06 08:21:07;;;;;;;5.70;1.83;;;4.80;99.90;;;;;;5092128;28;20424;-88
2022/12/06 08:23:33;;;;;;;5.57;1.83;;;4.80;99.90;;;;;;5107939;28;20032;-88
2022/12/06 08:26:18;;;;;;;5.53;1.70;;;4.70;99.90;;;;;;5100418;28;20607;-87
2022/12/06 08:28:44;;;;;;;8.20;2.00;;;4.70;99.90;;;;;;5088841;28;20441;-88
2022/12/06 08:31:13;;;;;;;6.35;2.15;;;4.70;99.90;;;;;;5105328;28;20031;-87
2022/12/06 08:33:39;;;;;;;12.68;2.70;;;4.70;99.90;;;;;;5109348;28;20032;-88
2022/12/06 08:36:09;;;;;;;6.18;1.88;;;4.60;99.90;;;;;;5091942;28;20040;-88
2022/12/06 08:38:36;;;;;;;6.15;2.40;;;4.60;99.90;;;;;;5109153;28;20131;-88
2022/12/06 08:41:01;;;;;;;5.20;1.80;;;4.60;99.90;;;;;;5108446;28;20038;-88
2022/12/06 08:43:27;;;;;;;6.93;1.98;;;4.60;99.90;;;;;;5109177;28;20396;-88
2022/12/06 08:45:53;;;;;;;7.30;1.77;;;4.60;99.90;;;;;;5091339;28;20480;-88
2022/12/06 08:48:18;;;;;;;6.45;2.10;;;4.60;99.90;;;;;;5109807;28;20047;-88
2022/12/06 08:50:44;;;;;;;7.20;2.08;;;4.60;99.90;;;;;;5109850;28;20126;-88
2022/12/06 08:53:09;;;;;;;5.43;1.80;;;4.60;99.90;;;;;;5091405;28;20086;-87
2022/12/06 08:55:35;;;;;;;7.22;1.95;;;4.60;99.90;;;;;;5096703;28;20043;-88
2022/12/06 08:58:01;;;;;;;5.32;2.10;;;4.60;99.90;;;;;;5096084;28;20507;-88
2022/12/06 09:00:26;;;;;;;7.50;2.33;;;4.60;99.90;;;;;;5094554;28;20047;-88
2022/12/06 09:02:52;;;;;;;5.53;1.95;;;4.60;99.90;;;;;;5095983;28;20084;-88
2022/12/06 09:05:17;;;;;;;5.68;2.00;;;4.60;99.90;;;;;;5095182;28;20123;-88
2022/12/06 09:07:43;;;;;;;7.43;2.28;;;4.60;99.90;;;;;;5096226;28;20067;-89
2022/12/06 09:10:09;;;;;;;7.03;2.03;;;4.70;99.90;;;;;;5113578;28;20488;-89
2022/12/06 09:12:34;;;;;;;8.05;2.22;;;4.70;99.90;;;;;;5101909;28;20485;-88
2022/12/06 09:15:00;;;;;;;6.88;2.30;;;4.80;99.90;;;;;;5075595;28;20036;-88
2022/12/06 09:17:25;;;;;;;6.22;1.90;;;4.80;99.90;;;;;;5084751;28;20504;-87
2022/12/06 09:19:51;;;;;;;10.95;3.45;;;4.80;99.90;;;;;;5112176;28;20066;-88
2022/12/06 09:22:17;;;;;;;6.47;2.20;;;4.90;99.90;;;;;;5095537;28;20043;-88
2022/12/06 09:24:42;;;;;;;7.95;3.15;;;4.90;99.90;;;;;;5112531;28;20032;-87
2022/12/06 09:27:08;;;;;;;9.18;2.45;;;5.00;99.90;;;;;;5112900;28;20046;-88
2022/12/06 09:29:34;;;;;;;8.23;2.30;;;5.00;99.90;;;;;;5112921;28;20424;-88
2022/12/06 09:32:00;;;;;;;7.53;2.47;;;5.10;99.90;;;;;;5094861;28;20043;-88
2022/12/06 09:34:26;;;;;;;7.53;2.35;;;5.20;99.90;;;;;;5112600;28;20039;-88
2022/12/06 09:36:56;;;;;;;5.95;2.10;;;5.30;99.90;;;;;;5092245;28;20440;-88
2022/12/06 09:39:29;;;;;;;6.97;2.65;;;5.30;99.90;;;;;;5109022;28;20048;-89
2022/12/06 09:41:54;;;;;;;6.47;2.53;;;5.40;99.90;;;;;;5101928;28;20040;-88
2022/12/06 09:44:46;;;;;;;7.55;2.83;;;5.50;99.90;;;;;;5094903;28;20062;-88
2022/12/06 09:47:49;;;;;;;6.57;2.00;;;5.60;99.90;;;;;;5086052;28;20035;-88
2022/12/06 09:50:26;;;;;;;6.97;2.38;;;5.70;99.90;;;;;;5112678;28;20032;-88
2022/12/06 09:53:10;;;;;;;8.60;3.10;;;5.80;99.90;;;;;;5094389;28;20035;-88
2022/12/06 09:55:59;;;;;;;8.82;2.20;;;5.90;99.90;;;;;;5112108;28;20040;-88
2022/12/06 09:58:48;;;;;;;8.70;2.67;;;6.00;99.90;;;;;;5111347;28;20070;-88
2022/12/06 10:01:41;;;;;;;6.65;2.03;;;6.10;99.90;;;;;;5108252;28;20120;-87
2022/12/06 10:04:44;;;;;;;7.90;2.20;;;6.20;99.90;;;;;;5109423;28;20515;-88
2022/12/06 10:07:47;;;;;;;7.88;2.10;;;6.20;99.90;;;;;;5109675;28;20389;-88
2022/12/06 10:10:32;;;;;;;7.15;2.20;;;6.30;99.90;;;;;;5111897;28;20032;-88
2022/12/06 10:13:14;;;;;;;7.00;2.33;;;6.20;99.90;;;;;;5111354;28;20044;-87
2022/12/06 10:15:56;;;;;;;6.03;2.05;;;6.20;99.90;;;;;;5094223;28;20035;-88
2022/12/06 10:19:01;;;;;;;7.70;2.38;;;6.20;99.90;;;;;;5083449;28;20508;-88
2022/12/06 10:22:04;;;;;;;5.72;1.80;;;6.30;99.90;;;;;;5109532;27;20083;-88
2022/12/06 10:24:50;;;;;;;6.20;2.08;;;6.30;99.90;;;;;;5070923;28;20048;-88
2022/12/06 10:27:37;;;;;;;5.95;2.03;;;6.30;99.90;;;;;;5073062;28;20090;-88
2022/12/06 10:30:14;;;;;;;7.40;2.03;;;6.30;99.90;;;;;;5091672;28;20052;-88
2022/12/06 10:32:51;;;;;;;8.32;2.42;;;6.20;99.90;;;;;;5053641;28;20526;-88
2022/12/06 10:35:35;;;;;;;6.10;2.25;;;6.20;99.90;;;;;;5092802;28;20034;-87
2022/12/06 10:38:25;;;;;;;7.60;2.55;;;6.30;99.90;;;;;;5111048;28;20044;-88
2022/12/06 10:41:10;;;;;;;5.82;2.08;;;6.30;99.90;;;;;;5093286;28;20519;-88
2022/12/06 10:43:52;;;;;;;7.57;2.45;;;6.50;99.90;;;;;;5094104;28;20042;-88
2022/12/06 10:49:52;;;;;;;7.80;2.28;;;6.70;99.90;;;;;;5091264;28;20040;-88
2022/12/06 10:52:43;;;;;;;6.28;1.83;;;6.90;99.90;;;;;;5087879;28;20050;-88
2022/12/06 10:55:26;;;;;;;5.78;1.80;;;7.10;99.90;;;;;;5094145;28;20556;-88
2022/12/06 10:57:54;;;;;;;6.15;1.85;;;7.20;99.90;;;;;;5093735;28;20169;-88
2022/12/06 11:00:23;;;;;;;6.63;2.08;;;7.40;99.90;;;;;;5093126;28;20040;-88
2022/12/06 11:03:13;;;;;;;5.93;1.85;;;7.50;99.90;;;;;;5093583;28;20500;-88
2022/12/06 11:06:01;;;;;;;7.68;2.00;;;7.60;99.90;;;;;;5109876;28;20035;-88
2022/12/06 11:08:44;;;;;;;4.65;1.70;;;7.70;99.90;;;;;;5105811;28;20031;-88
2022/12/06 11:11:15;;;;;;;9.25;1.63;;;7.70;99.90;;;;;;5053282;28;20044;-88
2022/12/06 11:13:48;;;;;;;6.13;1.48;;;7.80;99.90;;;;;;5092753;28;20054;-88
2022/12/06 11:16:20;;;;;;;6.97;1.98;;;7.90;99.90;;;;;;5109694;28;20032;-88
2022/12/06 11:18:47;;;;;;;5.63;1.58;;;8.10;99.90;;;;;;5097395;28;20063;-88
2022/12/06 11:21:23;;;;;;;4.70;1.55;;;8.20;99.90;;;;;;5092601;28;20535;-88
2022/12/06 11:24:06;;;;;;;6.18;1.80;;;8.10;99.90;;;;;;5110337;28;20035;-87
2022/12/06 11:26:39;;;;;;;5.78;1.90;;;8.20;99.90;;;;;;5079040;28;20065;-88
2022/12/06 11:29:10;;;;;;;6.05;1.52;;;8.30;99.90;;;;;;5110275;28;20040;-87
2022/12/06 11:31:46;;;;;;;5.32;1.60;;;8.50;99.90;;;;;;5092986;28;20057;-87
2022/12/06 11:34:24;;;;;;;7.50;2.15;;;8.50;99.90;;;;;;5068583;28;20045;-87
2022/12/06 11:36:52;;;;;;;3.35;1.42;;;8.60;99.90;;;;;;5073348;28;20501;-87
2022/12/06 11:39:17;;;;;;;5.13;1.58;;;8.80;99.90;;;;;;5091425;28;20704;-87
2022/12/06 11:41:47;;;;;;;6.20;1.92;;;9.00;99.90;;;;;;5110033;28;20070;-87
2022/12/06 11:44:20;;;;;;;5.35;1.50;;;9.10;99.90;;;;;;5092663;28;20039;-87
2022/12/06 11:46:50;;;;;;;6.72;1.55;;;9.10;99.90;;;;;;5093306;28;20127;-87
2022/12/06 11:49:28;;;;;;;8.65;1.77;;;9.00;99.90;;;;;;5093182;28;20046;-87
2022/12/06 11:51:56;;;;;;;6.00;1.83;;;9.00;99.90;;;;;;5093286;28;20134;-87
2022/12/06 11:54:27;;;;;;;4.28;1.60;;;8.80;99.90;;;;;;5092512;28;20035;-87
2022/12/06 11:56:57;;;;;;;6.38;1.63;;;8.60;99.90;;;;;;5109782;28;20062;-87
2022/12/06 11:59:29;;;;;;;7.75;1.80;;;8.50;99.90;;;;;;5093024;28;20036;-88
2022/12/06 12:02:02;;;;;;;4.40;1.30;;;8.40;99.90;;;;;;5076352;28;20036;-88
2022/12/06 12:04:39;;;;;;;5.72;1.60;;;8.40;99.90;;;;;;5088924;28;20040;-88
2022/12/06 12:07:08;;;;;;;4.13;1.33;;;8.80;99.90;;;;;;5085607;28;20028;-88
2022/12/06 12:09:48;;;;;;;5.47;1.60;;;9.40;99.90;;;;;;5093529;28;20401;-88
2022/12/06 12:12:18;;;;;;;3.50;1.48;;;9.90;99.90;;;;;;5091506;28;20043;-88
2022/12/06 12:14:51;;;;;;;7.78;2.30;;;10.40;99.90;;;;;;5069926;28;20027;-87
2022/12/06 12:17:19;;;;;;;;;;;11.20;99.90;;;;;;5072388;28;20040;-87
2022/12/06 12:20:02;;;;;;;5.47;1.77;;;11.90;99.90;;;;;;5129500;27;20382;-88
2022/12/06 12:22:34;;;;;;;5.43;1.60;;;11.90;99.90;;;;;;5072105;28;20040;-87
2022/12/06 12:25:02;;;;;;;4.35;1.50;;;11.80;99.90;;;;;;5083401;28;20040;-88
2022/12/06 12:27:44;;;;;;;14.00;1.83;;;11.30;99.90;;;;;;5092088;28;20036;-88
2022/12/06 12:30:35;;;;;;;5.95;1.80;;;10.80;99.90;;;;;;5109279;28;20059;-88
2022/12/06 12:33:04;;;;;;;5.68;1.60;;;10.50;99.90;;;;;;5109036;28;20046;-87
2022/12/06 12:35:30;;;;;;;6.30;1.55;;;10.10;99.90;;;;;;5108714;28;20116;-88
2022/12/06 12:38:11;;;;;;;10.40;1.70;;;9.80;99.90;;;;;;5108615;28;20043;-88
2022/12/06 12:40:44;;;;;;;6.20;1.67;;;9.50;99.90;;;;;;5092137;28;20158;-88
2022/12/06 12:43:18;;;;;;;4.68;1.30;;;9.40;99.90;;;;;;5091401;28;20039;-87
2022/12/06 12:46:05;;;;;;;4.32;1.30;;;9.20;99.90;;;;;;5109526;28;20042;-89
2022/12/06 12:48:30;;;;;;;6.30;1.48;;;8.90;99.90;;;;;;5089314;28;20512;-88
2022/12/06 12:50:59;;;;;;;4.18;1.40;;;8.80;99.90;;;;;;5080535;28;20032;-87
2022/12/06 12:53:31;;;;;;;4.82;1.52;;;8.60;99.90;;;;;;5080102;28;20111;-89
2022/12/06 12:56:13;;;;;;;5.30;1.17;;;8.40;99.90;;;;;;5099036;28;20033;-89
2022/12/06 12:58:40;;;;;;;3.33;1.15;;;8.30;99.90;;;;;;5083574;28;20034;-88
2022/12/06 13:01:24;;;;;;;3.35;1.15;;;8.30;99.90;;;;;;5099215;28;20046;-89
2022/12/06 13:04:19;;;;;;;6.80;1.33;;;8.20;99.90;;;;;;5098824;28;20493;-89
2022/12/06 13:06:53;;;;;;;7.43;1.40;;;8.20;99.90;;;;;;5082073;28;20051;-89
2022/12/06 13:09:46;;;;;;;9.98;1.52;;;8.20;99.90;;;;;;5109383;28;20043;-89
2022/12/06 13:12:35;;;;;;;3.70;1.30;;;8.90;99.90;;;;;;5109510;28;20063;-89
2022/12/06 13:15:05;;;;;;;4.45;1.10;;;10.40;99.90;;;;;;5108786;28;20050;-89
2022/12/06 13:17:34;;;;;;;4.00;1.25;;;11.80;99.90;;;;;;5091330;28;20046;-89
2022/12/06 13:20:01;;;;;;;3.72;1.40;;;13.00;99.90;;;;;;5110492;28;20042;-89
2022/12/06 13:22:31;;;;;;;5.80;1.45;;;13.10;96.90;;;;;;5107464;28;20046;-89
2022/12/06 13:25:00;;;;;;;4.13;1.30;;;12.70;94.90;;;;;;5109438;28;20035;-89
2022/12/06 13:27:29;;;;;;;5.70;1.55;;;11.90;95.50;;;;;;5092077;28;20031;-90
2022/12/06 13:30:01;;;;;;;5.07;1.50;;;11.30;97.90;;;;;;5091918;28;20416;-89
2022/12/06 13:32:39;;;;;;;5.73;2.20;;;10.70;99.90;;;;;;5091397;28;20040;-90
2022/12/06 13:35:20;;;;;;;3.90;1.20;;;10.20;99.90;;;;;;5087395;28;20055;-89
2022/12/06 13:37:53;;;;;;;3.63;1.80;;;9.70;99.90;;;;;;5105314;28;20043;-89
2022/12/06 13:40:33;;;;;;;4.90;1.50;;;9.40;99.90;;;;;;5090272;28;20126;-89
2022/12/06 13:43:01;;;;;;;3.38;1.20;;;9.10;99.90;;;;;;5097322;28;20035;-89
2022/12/06 13:45:40;;;;;;;5.75;1.30;;;9.00;99.90;;;;;;5095879;28;20032;-89